Aérodrome :
LOGIN :

S'inscrire | Disclaimer

   EN    FR    IT 

 










Légende :    VFR   VFR Marginal   IFR   IFR Intensif   IFR Très Intensif
Visi : 
Plafond : 
>= 8 km
>= 3000ft
5 à 8 km
1000 à 3000 ft
1500m à 5 km
500 à 1000 ft
800 à 1500m
200 à 500 ft
< 800m
< 200 ft
Symboles :   Orages  Brouillard  Fortes neiges  Fortes précipitations  Vent > 20 kt
SIGMETs :   Divers  Orages  Givrage  Turbulence  Onde Orograph.  Cendres Volcan.






- Altitude de l'aérodrome : 609 ft
- Code IATA : BJZ


LEBZ - Badajoz

DERNIER METAR :
  • 131730Z 29009KT 260V330 CAVOK 33/09 Q1014

METARs EXPIRÉS :
  • 131700Z 30007KT 240V350 CAVOK 33/11 Q1014
  • 131630Z 32009KT 250V350 CAVOK 32/13 Q1014
  • 131600Z 28006KT 200V340 CAVOK 33/13 Q1014
  • 131530Z 31005KT 250V050 CAVOK 33/11 Q1014
  • 131500Z 34005KT 280V040 CAVOK 32/12 Q1014

TAF TAF LEBZ
Valide du 13 à 18h jusqu'au 14 à 18h UTC


131700Z 1318/1418 28007KT CAVOK TX33/1415Z TN15/1406Z



MET'MAP, la Météo Aéronautique d'un coup d'oeil ! - Copyright ORBIFLY Décembre 2007 - Disclaimer

ORBIFLY MET'MAP TEAM :

Programmation & Développement : Alexandra Zaïnal
Sur une idée originale de : Baudouin d'Aumeries
Assistance à la programmation : Marc-Olivier Méhu
Soutien technique & logistique : Manuel Goepfert

Contact : metmap@orbifly.com




SOURCES & CREDITS :

   NOAA